Navarre, MN (55392)

11:57 PM CST on February 10, 2016 (GMT -0600)
Hadley Lake | | Change Station
CLOSE
Current Station
Personal Weather Station
Location: Minneapolis, MN
Elevation: 994 ft
Nearby Weather Stations

Elev 994 ft 44.98 °N, 93.51 °W | Updated 20 seconds ago

Mostly Cloudy
Mostly Cloudy
4.3 °F
Feels Like 4 °F
N
0.0
Wind Variable Wind from WNW
Gusts 0.0 mph

Today
High -- | Low -- °F
--% Chance of Precip.
Yesterday
High -- | Low -- °F
Precip. -- in
Pressure 30.33 in
Visibility 10.0 miles
Clouds Clear
Windchill 4 °F
Dew Point -8 °F
Humidity 56%
Rainfall 0.00 in
Snow Depth Not available.
7:22 AM 5:34 PM
Waxing Crescent, 9% visible
METAR KFCM 110553Z AUTO 32004KT 10SM CLR M13/M19 A3027 RMK AO2 SLP271 T11331194 11106 21133 411001161 53010
Pressure 30.33 in
Visibility 10.0 miles
Clouds Clear
Windchill 4 °F
Dew Point -8 °F
Humidity 56%
Rainfall 0.00 in
Snow Depth Not available.
7:22 AM 5:34 PM
Waxing Crescent, 9% visible
METAR KFCM 110553Z AUTO 32004KT 10SM CLR M13/M19 A3027 RMK AO2 SLP271 T11331194 11106 21133 411001161 53010

10-Day Weather Forecast

Almanac

Astronomy

Feb. 10, 2016 Rise Set
Actual Time
Civil Twilight
Nautical Twilight
Astronomical Twilight
Moon
Length of Visible Light
Length of Day
Tomorrow will be .
, % of the Moon is Illuminated

Today's Extremes

State Highs State Lows

Community

WunderPhotos

Upload Photos

1,892,023 photos uploaded!

WunderBlog® & News

Nearby

Air Quality

  Air Quality AQ Index Pollutant
Not available.

Snow Depth

Station Depth Elevation

Earthquake Activity

City Distance Mag. Time & Date
Minimum magnitude displayed is 2.5.

Coastal Water Temperatures

Place Temperature

Stations

Nearby Weather Stations

Station Location Temp. Windchill Dew Point Humidity Wind Precip. Elev Updated Type
                   

Watches & Warnings

There are currently no watches in effect.